sensor_id;sensor_type;location;lat;lon;timestamp;pressure;altitude;pressure_sealevel;temperature;humidity
23953;BME280;12163;49.316;6.092;2022-11-20T00:00:53;98955.19;;;8.90;84.13
23953;BME280;12163;49.316;6.092;2022-11-20T00:03:20;98962.16;;;8.91;84.15
23953;BME280;12163;49.316;6.092;2022-11-20T00:05:47;98961.56;;;8.94;84.14
23953;BME280;12163;49.316;6.092;2022-11-20T00:08:14;98958.56;;;8.96;84.06
23953;BME280;12163;49.316;6.092;2022-11-20T00:10:40;98956.72;;;8.96;84.11
23953;BME280;12163;49.316;6.092;2022-11-20T00:13:07;98960.41;;;9.00;84.05
23953;BME280;12163;49.316;6.092;2022-11-20T00:15:34;98960.66;;;9.04;84.22
23953;BME280;12163;49.316;6.092;2022-11-20T00:18:01;98956.56;;;9.06;83.83
23953;BME280;12163;49.316;6.092;2022-11-20T00:20:27;98960.84;;;9.07;83.74
23953;BME280;12163;49.316;6.092;2022-11-20T00:22:54;98959.25;;;9.06;83.82
23953;BME280;12163;49.316;6.092;2022-11-20T00:25:20;98955.78;;;9.06;84.00
23953;BME280;12163;49.316;6.092;2022-11-20T00:27:47;98957.59;;;9.10;83.72
23953;BME280;12163;49.316;6.092;2022-11-20T00:30:13;98954.34;;;9.13;83.80
23953;BME280;12163;49.316;6.092;2022-11-20T00:32:40;98963.78;;;9.11;83.69
23953;BME280;12163;49.316;6.092;2022-11-20T00:35:07;98963.50;;;9.12;83.71
23953;BME280;12163;49.316;6.092;2022-11-20T00:37:34;98965.09;;;9.13;83.59
23953;BME280;12163;49.316;6.092;2022-11-20T00:40:00;98958.31;;;9.16;83.46
23953;BME280;12163;49.316;6.092;2022-11-20T00:42:27;98952.66;;;9.17;83.34
23953;BME280;12163;49.316;6.092;2022-11-20T00:44:53;98956.13;;;9.18;82.91
23953;BME280;12163;49.316;6.092;2022-11-20T00:47:20;98958.03;;;9.17;83.19
23953;BME280;12163;49.316;6.092;2022-11-20T00:49:46;98954.53;;;9.17;83.20
23953;BME280;12163;49.316;6.092;2022-11-20T00:52:13;98958.81;;;9.18;83.33
23953;BME280;12163;49.316;6.092;2022-11-20T00:54:39;98963.34;;;9.22;82.98
23953;BME280;12163;49.316;6.092;2022-11-20T00:57:06;98960.66;;;9.22;82.39
23953;BME280;12163;49.316;6.092;2022-11-20T00:59:32;98957.97;;;9.22;82.79
23953;BME280;12163;49.316;6.092;2022-11-20T01:01:59;98959.63;;;9.18;82.76
23953;BME280;12163;49.316;6.092;2022-11-20T01:04:26;98970.09;;;9.20;82.97
23953;BME280;12163;49.316;6.092;2022-11-20T01:06:52;98965.75;;;9.24;82.59
23953;BME280;12163;49.316;6.092;2022-11-20T01:09:19;98961.97;;;9.25;82.72
23953;BME280;12163;49.316;6.092;2022-11-20T01:11:46;98958.78;;;9.23;82.81
23953;BME280;12163;49.316;6.092;2022-11-20T01:14:16;98959.56;;;9.23;82.78
23953;BME280;12163;49.316;6.092;2022-11-20T01:16:45;98961.97;;;9.25;82.58
23953;BME280;12163;49.316;6.092;2022-11-20T01:19:22;98955.00;;;9.24;82.54
23953;BME280;12163;49.316;6.092;2022-11-20T01:21:51;98949.81;;;9.27;82.63
23953;BME280;12163;49.316;6.092;2022-11-20T01:24:20;98951.72;;;9.27;82.68
23953;BME280;12163;49.316;6.092;2022-11-20T01:26:49;98957.38;;;9.25;82.63
23953;BME280;12163;49.316;6.092;2022-11-20T01:29:26;98954.41;;;9.27;82.40
23953;BME280;12163;49.316;6.092;2022-11-20T01:31:53;98957.38;;;9.25;82.72
23953;BME280;12163;49.316;6.092;2022-11-20T01:34:21;98951.22;;;9.25;82.49
23953;BME280;12163;49.316;6.092;2022-11-20T01:36:49;98949.66;;;9.19;82.49
23953;BME280;12163;49.316;6.092;2022-11-20T01:39:23;98956.94;;;9.18;82.51
23953;BME280;12163;49.316;6.092;2022-11-20T01:41:52;98963.94;;;9.19;82.72
23953;BME280;12163;49.316;6.092;2022-11-20T01:44:48;98964.78;;;9.15;82.77
23953;BME280;12163;49.316;6.092;2022-11-20T01:47:43;98965.31;;;9.17;82.75
23953;BME280;12163;49.316;6.092;2022-11-20T01:50:23;98959.13;;;9.16;82.66
23953;BME280;12163;49.316;6.092;2022-11-20T01:53:04;98971.00;;;9.15;82.69
23953;BME280;12163;49.316;6.092;2022-11-20T01:55:35;98958.13;;;9.12;82.79
23953;BME280;12163;49.316;6.092;2022-11-20T01:58:04;98963.00;;;9.10;82.99
23953;BME280;12163;49.316;6.092;2022-11-20T02:00:31;98952.22;;;9.10;83.12
23953;BME280;12163;49.316;6.092;2022-11-20T02:03:00;98960.81;;;9.12;82.87
23953;BME280;12163;49.316;6.092;2022-11-20T02:05:43;98954.91;;;9.10;82.98
23953;BME280;12163;49.316;6.092;2022-11-20T02:08:12;98953.81;;;9.11;83.14
23953;BME280;12163;49.316;6.092;2022-11-20T02:10:39;98960.81;;;9.12;83.17
23953;BME280;12163;49.316;6.092;2022-11-20T02:13:05;98959.22;;;9.11;83.30
23953;BME280;12163;49.316;6.092;2022-11-20T02:15:51;98955.44;;;9.12;83.26
23953;BME280;12163;49.316;6.092;2022-11-20T02:18:19;98961.91;;;9.11;83.35
23953;BME280;12163;49.316;6.092;2022-11-20T02:20:49;98961.91;;;9.11;83.31
23953;BME280;12163;49.316;6.092;2022-11-20T02:25:58;98954.91;;;9.10;83.45
23953;BME280;12163;49.316;6.092;2022-11-20T02:28:27;98950.09;;;9.07;83.58
23953;BME280;12163;49.316;6.092;2022-11-20T02:30:54;98950.09;;;9.07;83.95
23953;BME280;12163;49.316;6.092;2022-11-20T02:33:20;98948.78;;;9.05;83.74
23953;BME280;12163;49.316;6.092;2022-11-20T02:35:47;98943.19;;;9.01;84.26
23953;BME280;12163;49.316;6.092;2022-11-20T02:38:14;98949.38;;;9.02;84.21
23953;BME280;12163;49.316;6.092;2022-11-20T02:40:41;98944.78;;;9.02;84.29
23953;BME280;12163;49.316;6.092;2022-11-20T02:43:09;98948.28;;;9.03;84.45
23953;BME280;12163;49.316;6.092;2022-11-20T02:45:36;98942.91;;;9.03;84.64
23953;BME280;12163;49.316;6.092;2022-11-20T02:48:02;98942.66;;;8.99;84.62
23953;BME280;12163;49.316;6.092;2022-11-20T02:50:29;98942.66;;;8.99;84.47
23953;BME280;12163;49.316;6.092;2022-11-20T02:52:55;98937.88;;;8.96;84.56
23953;BME280;12163;49.316;6.092;2022-11-20T02:55:22;98941.16;;;8.93;85.18
23953;BME280;12163;49.316;6.092;2022-11-20T02:57:48;98938.97;;;8.95;85.33
23953;BME280;12163;49.316;6.092;2022-11-20T03:00:15;98946.22;;;8.95;85.53
23953;BME280;12163;49.316;6.092;2022-11-20T03:02:42;98950.81;;;8.94;85.42
23953;BME280;12163;49.316;6.092;2022-11-20T03:05:08;98934.66;;;8.94;85.57
23953;BME280;12163;49.316;6.092;2022-11-20T03:07:35;98951.59;;;8.95;85.46
23953;BME280;12163;49.316;6.092;2022-11-20T03:10:02;98937.88;;;8.96;85.60
23953;BME280;12163;49.316;6.092;2022-11-20T03:12:29;98945.63;;;8.98;85.00
23953;BME280;12163;49.316;6.092;2022-11-20T03:14:56;98936.78;;;8.97;85.40
23953;BME280;12163;49.316;6.092;2022-11-20T03:17:22;98948.63;;;8.96;85.32
23953;BME280;12163;49.316;6.092;2022-11-20T03:19:49;98947.03;;;8.95;85.20
23953;BME280;12163;49.316;6.092;2022-11-20T03:22:15;98943.84;;;8.93;85.62
23953;BME280;12163;49.316;6.092;2022-11-20T03:24:42;98940.25;;;8.98;85.33
23953;BME280;12163;49.316;6.092;2022-11-20T03:27:08;98939.97;;;8.99;85.31
23953;BME280;12163;49.316;6.092;2022-11-20T03:29:35;98944.78;;;9.02;85.33
23953;BME280;12163;49.316;6.092;2022-11-20T03:32:02;98932.72;;;9.00;85.16
23953;BME280;12163;49.316;6.092;2022-11-20T03:34:28;98930.81;;;9.00;85.33
23953;BME280;12163;49.316;6.092;2022-11-20T03:36:55;98932.41;;;9.01;85.27
23953;BME280;12163;49.316;6.092;2022-11-20T03:39:21;98931.31;;;9.02;85.20
23953;BME280;12163;49.316;6.092;2022-11-20T03:41:48;98926.75;;;9.03;85.11
23953;BME280;12163;49.316;6.092;2022-11-20T03:44:15;98923.84;;;8.99;85.25
23953;BME280;12163;49.316;6.092;2022-11-20T03:46:41;98926.53;;;8.99;85.13
23953;BME280;12163;49.316;6.092;2022-11-20T03:49:08;98933.00;;;8.98;85.19
23953;BME280;12163;49.316;6.092;2022-11-20T03:51:35;98932.72;;;9.00;85.39
23953;BME280;12163;49.316;6.092;2022-11-20T03:54:04;98928.94;;;9.01;85.33
23953;BME280;12163;49.316;6.092;2022-11-20T03:56:33;98925.19;;;8.97;85.10
23953;BME280;12163;49.316;6.092;2022-11-20T03:59:01;98930.31;;;8.98;84.95
23953;BME280;12163;49.316;6.092;2022-11-20T04:01:31;98925.72;;;8.99;85.40
23953;BME280;12163;49.316;6.092;2022-11-20T04:03:58;98930.81;;;9.00;85.27
23953;BME280;12163;49.316;6.092;2022-11-20T04:06:36;98930.31;;;8.98;84.98
23953;BME280;12163;49.316;6.092;2022-11-20T04:09:03;98927.84;;;9.02;84.96
23953;BME280;12163;49.316;6.092;2022-11-20T04:11:35;98931.03;;;9.04;84.80
23953;BME280;12163;49.316;6.092;2022-11-20T04:14:04;98939.91;;;9.04;84.77
23953;BME280;12163;49.316;6.092;2022-11-20T04:16:35;98939.13;;;9.04;84.17
23953;BME280;12163;49.316;6.092;2022-11-20T04:19:04;98936.94;;;9.06;84.26
23953;BME280;12163;49.316;6.092;2022-11-20T04:21:32;98938.81;;;9.05;84.06
23953;BME280;12163;49.316;6.092;2022-11-20T04:23:58;98940.50;;;9.01;84.45
23953;BME280;12163;49.316;6.092;2022-11-20T04:26:27;98942.66;;;8.99;84.20
23953;BME280;12163;49.316;6.092;2022-11-20T04:28:54;98946.69;;;9.02;84.18
23953;BME280;12163;49.316;6.092;2022-11-20T04:31:23;98933.75;;;9.04;84.41
23953;BME280;12163;49.316;6.092;2022-11-20T04:33:50;98939.91;;;9.04;84.34
23953;BME280;12163;49.316;6.092;2022-11-20T04:38:44;98930.75;;;9.05;83.90
23953;BME280;12163;49.316;6.092;2022-11-20T04:41:19;98945.28;;;9.04;83.90
23953;BME280;12163;49.316;6.092;2022-11-20T04:43:51;98945.28;;;9.04;83.82
23953;BME280;12163;49.316;6.092;2022-11-20T04:46:19;98938.53;;;9.07;83.64
23953;BME280;12163;49.316;6.092;2022-11-20T04:48:47;98927.53;;;9.03;83.68
23953;BME280;12163;49.316;6.092;2022-11-20T04:51:14;98937.53;;;9.03;83.85
23953;BME280;12163;49.316;6.092;2022-11-20T04:53:41;98933.75;;;9.04;83.98
23953;BME280;12163;49.316;6.092;2022-11-20T04:56:10;98942.59;;;9.04;83.93
23953;BME280;12163;49.316;6.092;2022-11-20T04:58:37;98939.63;;;9.06;83.75
23953;BME280;12163;49.316;6.092;2022-11-20T05:01:15;98936.13;;;9.05;84.05
23953;BME280;12163;49.316;6.092;2022-11-20T05:03:43;98946.31;;;9.08;83.86
23953;BME280;12163;49.316;6.092;2022-11-20T05:06:12;98939.31;;;9.07;83.98
23953;BME280;12163;49.316;6.092;2022-11-20T05:08:40;98946.03;;;9.10;83.75
23953;BME280;12163;49.316;6.092;2022-11-20T05:11:11;98940.72;;;9.05;83.49
23953;BME280;12163;49.316;6.092;2022-11-20T05:13:38;98944.28;;;9.00;83.59
23953;BME280;12163;49.316;6.092;2022-11-20T05:16:13;98935.41;;;9.00;83.60
23953;BME280;12163;49.316;6.092;2022-11-20T05:18:41;98942.44;;;8.96;83.36
23953;BME280;12163;49.316;6.092;2022-11-20T05:21:08;98943.84;;;8.93;83.07
23953;BME280;12163;49.316;6.092;2022-11-20T05:23:35;98946.53;;;8.93;82.76
23953;BME280;12163;49.316;6.092;2022-11-20T05:26:03;98941.66;;;8.95;82.63
23953;BME280;12163;49.316;6.092;2022-11-20T05:28:30;98942.75;;;8.94;83.05
23953;BME280;12163;49.316;6.092;2022-11-20T05:31:24;98944.69;;;8.89;82.97
23953;BME280;12163;49.316;6.092;2022-11-20T05:33:54;98948.72;;;8.91;82.87
23953;BME280;12163;49.316;6.092;2022-11-20T05:36:22;98947.63;;;8.92;83.14
23953;BME280;12163;49.316;6.092;2022-11-20T05:38:48;98940.84;;;8.95;82.92
23953;BME280;12163;49.316;6.092;2022-11-20T05:41:18;98961.00;;;8.97;83.00
23953;BME280;12163;49.316;6.092;2022-11-20T05:43:46;98957.78;;;8.95;83.06
23953;BME280;12163;49.316;6.092;2022-11-20T05:46:15;98950.81;;;8.94;83.32
23953;BME280;12163;49.316;6.092;2022-11-20T05:48:43;98956.78;;;8.91;82.99
23953;BME280;12163;49.316;6.092;2022-11-20T05:51:12;98953.56;;;8.89;83.60
23953;BME280;12163;49.316;6.092;2022-11-20T05:53:39;98955.19;;;8.90;83.42
23953;BME280;12163;49.316;6.092;2022-11-20T05:56:16;98948.47;;;9.06;84.46
23953;BME280;12163;49.316;6.092;2022-11-20T05:58:44;98951.41;;;9.28;83.69
23953;BME280;12163;49.316;6.092;2022-11-20T06:01:20;98947.97;;;9.60;83.96
23953;BME280;12163;49.316;6.092;2022-11-20T06:03:47;98949.44;;;9.71;81.68
23953;BME280;12163;49.316;6.092;2022-11-20T06:06:17;98943.31;;;9.97;82.29
23953;BME280;12163;49.316;6.092;2022-11-20T06:08:44;98943.34;;;10.29;81.09
23953;BME280;12163;49.316;6.092;2022-11-20T06:11:12;98949.44;;;10.21;78.24
23953;BME280;12163;49.316;6.092;2022-11-20T06:13:39;98949.00;;;10.14;78.75
23953;BME280;12163;49.316;6.092;2022-11-20T06:16:08;98943.00;;;10.17;78.66
23953;BME280;12163;49.316;6.092;2022-11-20T06:18:35;98951.19;;;10.12;78.73
23953;BME280;12163;49.316;6.092;2022-11-20T06:21:07;98955.97;;;10.15;78.13
23953;BME280;12163;49.316;6.092;2022-11-20T06:23:35;98950.41;;;10.11;78.90
23953;BME280;12163;49.316;6.092;2022-11-20T06:26:06;98949.19;;;10.04;77.75
23953;BME280;12163;49.316;6.092;2022-11-20T06:28:34;98945.31;;;9.92;78.31
23953;BME280;12163;49.316;6.092;2022-11-20T06:31:01;98956.56;;;9.80;78.75
23953;BME280;12163;49.316;6.092;2022-11-20T06:33:27;98953.38;;;9.78;78.74
23953;BME280;12163;49.316;6.092;2022-11-20T06:35:59;98951.44;;;9.79;79.19
23953;BME280;12163;49.316;6.092;2022-11-20T06:38:32;98956.09;;;9.92;78.73
23953;BME280;12163;49.316;6.092;2022-11-20T06:40:59;98961.88;;;9.85;77.48
23953;BME280;12163;49.316;6.092;2022-11-20T06:43:25;98964.34;;;9.82;77.61
23953;BME280;12163;49.316;6.092;2022-11-20T06:45:53;98956.19;;;9.68;78.13
23953;BME280;12163;49.316;6.092;2022-11-20T06:48:20;98961.72;;;9.77;78.08
23953;BME280;12163;49.316;6.092;2022-11-20T06:50:47;98965.06;;;9.87;78.88
23953;BME280;12163;49.316;6.092;2022-11-20T06:53:14;98964.59;;;9.98;77.98
23953;BME280;12163;49.316;6.092;2022-11-20T06:55:47;98964.59;;;9.98;77.90
23953;BME280;12163;49.316;6.092;2022-11-20T06:58:16;98971.19;;;9.93;77.40
23953;BME280;12163;49.316;6.092;2022-11-20T07:00:43;98976.00;;;9.77;77.60
23953;BME280;12163;49.316;6.092;2022-11-20T07:03:11;98980.44;;;9.68;77.63
23953;BME280;12163;49.316;6.092;2022-11-20T07:05:38;98988.81;;;9.48;78.29
23953;BME280;12163;49.316;6.092;2022-11-20T07:08:06;98998.78;;;9.29;78.69
23953;BME280;12163;49.316;6.092;2022-11-20T07:10:33;99005.97;;;9.15;79.23
23953;BME280;12163;49.316;6.092;2022-11-20T07:13:00;99000.94;;;9.09;79.93
23953;BME280;12163;49.316;6.092;2022-11-20T07:15:27;98991.03;;;9.04;80.09
23953;BME280;12163;49.316;6.092;2022-11-20T07:17:53;98998.66;;;8.97;80.37
23953;BME280;12163;49.316;6.092;2022-11-20T07:20:20;99002.00;;;8.89;80.74
23953;BME280;12163;49.316;6.092;2022-11-20T07:22:46;99012.81;;;8.84;81.02
23953;BME280;12163;49.316;6.092;2022-11-20T07:25:19;99008.81;;;8.82;80.82
23953;BME280;12163;49.316;6.092;2022-11-20T07:27:45;99012.88;;;8.79;81.06
23953;BME280;12163;49.316;6.092;2022-11-20T07:30:12;99007.47;;;8.79;81.01
23953;BME280;12163;49.316;6.092;2022-11-20T07:32:40;99011.78;;;8.80;81.23
23953;BME280;12163;49.316;6.092;2022-11-20T07:35:07;99018.25;;;8.79;80.97
23953;BME280;12163;49.316;6.092;2022-11-20T07:37:34;99012.88;;;8.79;80.90
23953;BME280;12163;49.316;6.092;2022-11-20T07:40:01;99009.09;;;8.80;81.19
23953;BME280;12163;49.316;6.092;2022-11-20T07:42:28;99006.91;;;8.82;80.88
23953;BME280;12163;49.316;6.092;2022-11-20T07:44:55;99015.28;;;8.81;80.68
23953;BME280;12163;49.316;6.092;2022-11-20T07:47:21;99010.69;;;8.81;80.33
23953;BME280;12163;49.316;6.092;2022-11-20T07:49:48;99014.97;;;8.82;80.42
23953;BME280;12163;49.316;6.092;2022-11-20T07:52:14;99021.97;;;8.83;80.17
23953;BME280;12163;49.316;6.092;2022-11-20T07:54:41;99015.28;;;8.81;79.96
23953;BME280;12163;49.316;6.092;2022-11-20T07:57:07;99021.44;;;8.81;80.33
23953;BME280;12163;49.316;6.092;2022-11-20T07:59:34;99027.84;;;8.85;79.76
23953;BME280;12163;49.316;6.092;2022-11-20T08:02:01;99029.75;;;8.85;80.18
23953;BME280;12163;49.316;6.092;2022-11-20T08:04:27;99033.22;;;8.85;79.84
23953;BME280;12163;49.316;6.092;2022-11-20T08:06:54;99037.00;;;8.84;79.86
23953;BME280;12163;49.316;6.092;2022-11-20T08:09:20;99040.22;;;8.86;79.93
23953;BME280;12163;49.316;6.092;2022-11-20T08:11:47;99031.69;;;8.79;79.43
23953;BME280;12163;49.316;6.092;2022-11-20T08:14:32;99035.41;;;8.83;79.45
23953;BME280;12163;49.316;6.092;2022-11-20T08:16:58;99036.81;;;8.81;79.50
23953;BME280;12163;49.316;6.092;2022-11-20T08:19:25;99045.16;;;8.79;79.09
23953;BME280;12163;49.316;6.092;2022-11-20T08:21:52;99038.22;;;8.73;79.41
23953;BME280;12163;49.316;6.092;2022-11-20T08:24:19;99050.06;;;8.72;79.04
23953;BME280;12163;49.316;6.092;2022-11-20T08:26:45;99048.75;;;8.70;79.26
23953;BME280;12163;49.316;6.092;2022-11-20T08:29:12;99049.59;;;8.65;79.38
23953;BME280;12163;49.316;6.092;2022-11-20T08:31:38;99053.94;;;8.61;79.72
23953;BME280;12163;49.316;6.092;2022-11-20T08:34:05;99053.72;;;8.58;80.04
23953;BME280;12163;49.316;6.092;2022-11-20T08:36:35;99049.94;;;8.59;79.85
23953;BME280;12163;49.316;6.092;2022-11-20T08:39:02;99055.03;;;8.60;79.83
23953;BME280;12163;49.316;6.092;2022-11-20T08:41:30;99060.13;;;8.62;79.50
23953;BME280;12163;49.316;6.092;2022-11-20T08:44:01;99063.91;;;8.61;79.82
23953;BME280;12163;49.316;6.092;2022-11-20T08:46:41;99074.38;;;8.62;79.51
23953;BME280;12163;49.316;6.092;2022-11-20T08:49:11;99071.47;;;8.59;79.63
23953;BME280;12163;49.316;6.092;2022-11-20T08:51:39;99071.47;;;8.59;79.16
23953;BME280;12163;49.316;6.092;2022-11-20T08:54:06;99076.03;;;8.58;79.70
23953;BME280;12163;49.316;6.092;2022-11-20T08:56:33;99072.25;;;8.59;79.55
23953;BME280;12163;49.316;6.092;2022-11-20T08:59:00;99070.66;;;8.58;79.11
23953;BME280;12163;49.316;6.092;2022-11-20T09:01:46;99072.75;;;8.61;79.35
23953;BME280;12163;49.316;6.092;2022-11-20T09:04:13;99071.09;;;8.65;78.97
23953;BME280;12163;49.316;6.092;2022-11-20T09:06:40;99079.34;;;8.74;78.96
23953;BME280;12163;49.316;6.092;2022-11-20T09:09:07;99072.03;;;8.79;78.83
23953;BME280;12163;49.316;6.092;2022-11-20T09:11:34;99074.69;;;8.84;78.25
23953;BME280;12163;49.316;6.092;2022-11-20T09:14:02;99081.16;;;8.83;77.91
23953;BME280;12163;49.316;6.092;2022-11-20T09:16:29;99083.63;;;8.80;77.68
23953;BME280;12163;49.316;6.092;2022-11-20T09:18:55;99076.91;;;8.77;77.92
23953;BME280;12163;49.316;6.092;2022-11-20T09:21:42;99079.28;;;8.84;77.50
23953;BME280;12163;49.316;6.092;2022-11-20T09:24:08;99071.38;;;8.92;77.65
23953;BME280;12163;49.316;6.092;2022-11-20T09:26:35;99065.38;;;9.00;77.55
23953;BME280;12163;49.316;6.092;2022-11-20T09:29:02;99065.28;;;9.05;77.25
23953;BME280;12163;49.316;6.092;2022-11-20T09:31:28;99065.25;;;9.10;76.71
23953;BME280;12163;49.316;6.092;2022-11-20T09:33:55;99063.59;;;9.14;76.32
23953;BME280;12163;49.316;6.092;2022-11-20T09:36:21;99059.69;;;9.25;76.12
23953;BME280;12163;49.316;6.092;2022-11-20T09:38:48;99059.56;;;9.35;75.57
23953;BME280;12163;49.316;6.092;2022-11-20T09:44:18;99051.41;;;9.40;75.27
23953;BME280;12163;49.316;6.092;2022-11-20T09:55:25;99055.88;;;9.68;73.04
23953;BME280;12163;49.316;6.092;2022-11-20T09:57:54;99051.59;;;9.67;74.08
23953;BME280;12163;49.316;6.092;2022-11-20T10:00:22;99061.19;;;9.73;73.50
23953;BME280;12163;49.316;6.092;2022-11-20T10:02:57;99059.00;;;9.75;73.76
23953;BME280;12163;49.316;6.092;2022-11-20T10:05:30;99050.41;;;9.73;73.07
23953;BME280;12163;49.316;6.092;2022-11-20T10:08:23;99043.72;;;9.71;73.08
23953;BME280;12163;49.316;6.092;2022-11-20T10:13:39;99035.66;;;9.71;72.56
23953;BME280;12163;49.316;6.092;2022-11-20T10:16:15;99031.69;;;9.82;73.05
23953;BME280;12163;49.316;6.092;2022-11-20T10:24:30;99023.75;;;9.90;71.98
23953;BME280;12163;49.316;6.092;2022-11-20T10:29:35;99020.34;;;10.03;71.60
23953;BME280;12163;49.316;6.092;2022-11-20T10:32:15;99021.78;;;9.96;72.00
23953;BME280;12163;49.316;6.092;2022-11-20T10:35:00;99020.78;;;9.92;71.51
23953;BME280;12163;49.316;6.092;2022-11-20T10:37:29;99012.97;;;9.90;72.06
23953;BME280;12163;49.316;6.092;2022-11-20T10:40:14;99008.59;;;9.94;72.49
23953;BME280;12163;49.316;6.092;2022-11-20T10:42:56;99006.41;;;9.96;72.55
23953;BME280;12163;49.316;6.092;2022-11-20T10:47:54;98998.69;;;10.08;71.79
23953;BME280;12163;49.316;6.092;2022-11-20T10:50:23;98998.53;;;10.18;71.62
23953;BME280;12163;49.316;6.092;2022-11-20T10:53:08;98998.53;;;10.18;70.71
23953;BME280;12163;49.316;6.092;2022-11-20T10:55:48;98993.34;;;10.21;70.72
23953;BME280;12163;49.316;6.092;2022-11-20T11:01:20;98981.88;;;10.43;70.71
23953;BME280;12163;49.316;6.092;2022-11-20T11:03:51;98978.91;;;10.58;70.20
23953;BME280;12163;49.316;6.092;2022-11-20T11:09:00;98980.25;;;10.60;69.26
23953;BME280;12163;49.316;6.092;2022-11-20T11:11:31;98970.81;;;10.58;68.83
23953;BME280;12163;49.316;6.092;2022-11-20T11:16:35;98973.13;;;10.64;68.30
23953;BME280;12163;49.316;6.092;2022-11-20T11:19:12;98978.25;;;10.66;68.15
23953;BME280;12163;49.316;6.092;2022-11-20T11:21:53;98978.22;;;10.52;67.57
23953;BME280;12163;49.316;6.092;2022-11-20T11:24:25;98973.41;;;10.36;67.50
23953;BME280;12163;49.316;6.092;2022-11-20T11:27:14;98966.00;;;10.28;67.65
23953;BME280;12163;49.316;6.092;2022-11-20T11:29:45;98956.31;;;10.27;68.39
23953;BME280;12163;49.316;6.092;2022-11-20T11:32:14;98958.78;;;10.23;68.81
23953;BME280;12163;49.316;6.092;2022-11-20T11:34:41;98953.72;;;10.22;68.33
23953;BME280;12163;49.316;6.092;2022-11-20T11:37:32;98943.59;;;10.14;69.10
23953;BME280;12163;49.316;6.092;2022-11-20T11:40:00;98939.31;;;10.26;69.06
23953;BME280;12163;49.316;6.092;2022-11-20T11:42:56;98936.25;;;10.33;68.91
23953;BME280;12163;49.316;6.092;2022-11-20T11:45:23;98932.44;;;10.34;68.07
23953;BME280;12163;49.316;6.092;2022-11-20T11:47:50;98928.06;;;10.38;68.23
23953;BME280;12163;49.316;6.092;2022-11-20T11:50:23;98930.06;;;10.46;67.94
23953;BME280;12163;49.316;6.092;2022-11-20T11:53:12;98921.56;;;10.52;68.34
23953;BME280;12163;49.316;6.092;2022-11-20T12:01:11;98911.56;;;10.80;68.42
23953;BME280;12163;49.316;6.092;2022-11-20T12:03:52;98908.75;;;10.85;66.83
23953;BME280;12163;49.316;6.092;2022-11-20T12:06:22;98918.44;;;10.86;66.35
23953;BME280;12163;49.316;6.092;2022-11-20T12:08:59;98913.16;;;10.81;66.45
23953;BME280;12163;49.316;6.092;2022-11-20T12:11:43;98913.28;;;10.76;66.65
23953;BME280;12163;49.316;6.092;2022-11-20T12:14:18;98911.69;;;10.75;66.75
23953;BME280;12163;49.316;6.092;2022-11-20T12:16:51;98907.50;;;10.69;65.08
23953;BME280;12163;49.316;6.092;2022-11-20T12:19:19;98914.66;;;10.60;65.27
23953;BME280;12163;49.316;6.092;2022-11-20T12:35:48;98901.56;;;10.40;64.93
23953;BME280;12163;49.316;6.092;2022-11-20T13:02:28;98833.97;;;10.50;64.22
23953;BME280;12163;49.316;6.092;2022-11-20T13:05:19;98830.44;;;10.49;64.63
23953;BME280;12163;49.316;6.092;2022-11-20T13:07:50;98828.56;;;10.50;64.39
23953;BME280;12163;49.316;6.092;2022-11-20T13:10:39;98829.19;;;10.47;64.40
23953;BME280;12163;49.316;6.092;2022-11-20T13:18:27;98814.59;;;10.48;64.19
23953;BME280;12163;49.316;6.092;2022-11-20T13:20:55;98815.78;;;10.42;64.04
23953;BME280;12163;49.316;6.092;2022-11-20T13:23:26;98806.69;;;10.38;64.78
23953;BME280;12163;49.316;6.092;2022-11-20T13:26:17;98807.19;;;10.40;64.30
23953;BME280;12163;49.316;6.092;2022-11-20T13:28:46;98816.88;;;10.41;64.21
23953;BME280;12163;49.316;6.092;2022-11-20T13:31:34;98815.38;;;10.35;63.92
23953;BME280;12163;49.316;6.092;2022-11-20T13:34:04;98799.59;;;10.28;64.41
23953;BME280;12163;49.316;6.092;2022-11-20T13:36:32;98785.03;;;10.29;64.69
23953;BME280;12163;49.316;6.092;2022-11-20T13:38:59;98781.44;;;10.34;64.38
23953;BME280;12163;49.316;6.092;2022-11-20T13:41:36;98770.03;;;10.37;64.93
23953;BME280;12163;49.316;6.092;2022-11-20T13:46:41;98766.25;;;10.38;64.76
23953;BME280;12163;49.316;6.092;2022-11-20T13:49:26;98775.03;;;10.43;64.66
23953;BME280;12163;49.316;6.092;2022-11-20T13:52:22;98768.13;;;10.51;64.13
23953;BME280;12163;49.316;6.092;2022-11-20T13:57:54;98757.59;;;10.63;63.66
23953;BME280;12163;49.316;6.092;2022-11-20T14:00:26;98756.41;;;10.69;63.81
23953;BME280;12163;49.316;6.092;2022-11-20T14:05:37;98749.16;;;10.78;63.69
23953;BME280;12163;49.316;6.092;2022-11-20T14:08:06;98735.31;;;10.71;63.50
23953;BME280;12163;49.316;6.092;2022-11-20T14:10:38;98755.38;;;10.65;63.86
23953;BME280;12163;49.316;6.092;2022-11-20T14:13:19;98748.34;;;10.55;64.43
23953;BME280;12163;49.316;6.092;2022-11-20T14:15:46;98734.66;;;10.52;64.83
23953;BME280;12163;49.316;6.092;2022-11-20T14:18:20;98744.75;;;10.46;64.95
23953;BME280;12163;49.316;6.092;2022-11-20T14:20:48;98745.66;;;10.42;64.76
23953;BME280;12163;49.316;6.092;2022-11-20T14:23:25;98737.19;;;10.35;64.35
23953;BME280;12163;49.316;6.092;2022-11-20T14:25:55;98741.09;;;10.29;64.77
23953;BME280;12163;49.316;6.092;2022-11-20T14:28:27;98735.34;;;10.22;65.11
23953;BME280;12163;49.316;6.092;2022-11-20T14:30:54;98725.31;;;10.22;65.97
23953;BME280;12163;49.316;6.092;2022-11-20T14:33:22;98724.03;;;10.20;65.95
23953;BME280;12163;49.316;6.092;2022-11-20T14:35:56;98720.94;;;10.13;66.08
23953;BME280;12163;49.316;6.092;2022-11-20T14:38:28;98730.75;;;10.09;66.93
23953;BME280;12163;49.316;6.092;2022-11-20T14:41:08;98719.06;;;10.00;67.35
23953;BME280;12163;49.316;6.092;2022-11-20T14:43:36;98727.22;;;9.95;67.90
23953;BME280;12163;49.316;6.092;2022-11-20T14:46:07;98713.06;;;9.90;68.86
23953;BME280;12163;49.316;6.092;2022-11-20T14:51:03;98709.78;;;9.79;69.85
23953;BME280;12163;49.316;6.092;2022-11-20T14:53:30;98709.69;;;9.71;70.37
23953;BME280;12163;49.316;6.092;2022-11-20T14:56:02;98704.19;;;9.62;70.46
23953;BME280;12163;49.316;6.092;2022-11-20T14:58:33;98703.19;;;9.58;70.83
23953;BME280;12163;49.316;6.092;2022-11-20T15:01:03;98700.00;;;9.56;70.88